createdAt,value
2017-11-07T00:00:02.814Z,7.00
2017-11-07T00:02:30.515Z,6.47
2017-11-07T00:04:57.953Z,7.00
2017-11-07T00:07:26.249Z,6.00
2017-11-07T00:09:53.727Z,6.03
2017-11-07T00:12:21.146Z,6.23
2017-11-07T00:14:48.571Z,6.00
2017-11-07T00:17:15.988Z,6.07
2017-11-07T00:19:43.509Z,6.10
2017-11-07T00:22:10.946Z,5.80
2017-11-07T00:24:38.399Z,5.80
2017-11-07T00:27:05.810Z,5.80
2017-11-07T00:29:33.383Z,5.40
2017-11-07T00:32:00.867Z,6.20
2017-11-07T00:34:28.264Z,6.60
2017-11-07T00:36:55.716Z,6.40
2017-11-07T00:39:23.108Z,5.80
2017-11-07T00:41:50.577Z,6.10
2017-11-07T00:44:17.991Z,6.40
2017-11-07T00:46:45.425Z,5.87
2017-11-07T00:49:12.832Z,6.20
2017-11-07T00:51:40.276Z,6.20
2017-11-07T00:54:07.744Z,5.90
2017-11-07T00:56:35.155Z,5.30
2017-11-07T00:59:02.616Z,6.07
2017-11-07T01:01:30.053Z,5.60
2017-11-07T01:03:57.475Z,5.60
2017-11-07T01:06:24.869Z,6.20
2017-11-07T01:08:52.304Z,5.57
2017-11-07T01:11:19.715Z,5.80
2017-11-07T01:13:47.173Z,5.73
2017-11-07T01:16:14.574Z,6.10
2017-11-07T01:18:42.039Z,5.47
2017-11-07T01:21:09.533Z,5.60
2017-11-07T01:23:37.245Z,6.00
2017-11-07T01:26:04.661Z,5.50
2017-11-07T01:28:32.057Z,5.23
2017-11-07T01:30:59.501Z,5.97
2017-11-07T01:33:26.905Z,5.10
2017-11-07T01:35:54.354Z,5.77
2017-11-07T01:38:21.738Z,6.63
2017-11-07T01:40:49.161Z,6.10
2017-11-07T01:43:16.589Z,5.90
2017-11-07T01:45:44.071Z,5.60
2017-11-07T01:48:11.472Z,6.40
2017-11-07T01:50:38.896Z,5.63
2017-11-07T01:53:06.340Z,5.67
2017-11-07T01:55:33.740Z,5.87
2017-11-07T01:58:01.189Z,5.80
2017-11-07T02:00:28.692Z,5.80
2017-11-07T02:02:56.137Z,6.10
2017-11-07T02:05:23.552Z,5.90
2017-11-07T02:07:51.008Z,5.40
2017-11-07T02:10:18.472Z,5.10
2017-11-07T02:12:45.891Z,5.50
2017-11-07T02:15:13.312Z,5.20
2017-11-07T02:17:40.705Z,5.63
2017-11-07T02:20:08.118Z,5.10
2017-11-07T02:22:35.560Z,5.67
2017-11-07T02:25:03.008Z,5.43
2017-11-07T02:27:30.479Z,5.50
2017-11-07T02:29:57.889Z,5.43
2017-11-07T02:32:25.312Z,5.70
2017-11-07T02:34:52.733Z,5.90
2017-11-07T02:37:20.132Z,6.90
2017-11-07T02:39:47.633Z,5.90
2017-11-07T02:42:15.030Z,5.80
2017-11-07T02:44:42.423Z,6.10
2017-11-07T02:47:09.868Z,5.30
2017-11-07T02:49:37.302Z,5.60
2017-11-07T02:52:04.721Z,5.43
2017-11-07T02:54:33.059Z,6.03
2017-11-07T02:57:00.484Z,5.27
2017-11-07T02:59:27.885Z,5.53
2017-11-07T03:01:55.298Z,5.57
2017-11-07T03:04:22.712Z,6.23
2017-11-07T03:06:50.149Z,6.67
2017-11-07T03:09:17.555Z,6.13
2017-11-07T03:11:44.977Z,6.77
2017-11-07T03:14:12.387Z,6.30
2017-11-07T03:16:39.819Z,6.30
2017-11-07T03:19:07.257Z,7.00
2017-11-07T03:21:34.645Z,6.40
2017-11-07T03:24:02.116Z,6.00
2017-11-07T03:26:29.522Z,6.53
2017-11-07T03:28:56.942Z,7.03
2017-11-07T03:31:24.331Z,7.17
2017-11-07T03:33:51.764Z,7.20
2017-11-07T03:36:19.169Z,7.10
2017-11-07T03:38:46.602Z,7.10
2017-11-07T03:41:14.023Z,6.73
2017-11-07T03:43:41.407Z,7.10
2017-11-07T03:46:08.839Z,7.40
2017-11-07T03:48:36.246Z,7.60
2017-11-07T03:51:03.672Z,7.07
2017-11-07T03:53:31.134Z,7.53
2017-11-07T03:55:58.573Z,7.33
2017-11-07T03:58:26.776Z,7.33
2017-11-07T04:00:54.264Z,7.00
2017-11-07T04:03:21.668Z,8.03
2017-11-07T04:05:49.119Z,7.40
2017-11-07T04:08:16.588Z,7.53
2017-11-07T04:10:44.098Z,7.40
2017-11-07T04:13:11.857Z,8.30
2017-11-07T04:15:39.381Z,8.23
2017-11-07T04:19:14.391Z,7.47
2017-11-07T04:21:41.885Z,7.17
2017-11-07T04:24:09.322Z,7.53
2017-11-07T04:26:36.760Z,7.50
2017-11-07T04:29:04.188Z,7.00
2017-11-07T04:31:31.585Z,7.57
2017-11-07T04:33:59.027Z,8.50
2017-11-07T04:36:26.433Z,7.57
2017-11-07T04:38:53.855Z,7.10
2017-11-07T04:41:21.277Z,7.83
2017-11-07T04:43:48.744Z,7.90
2017-11-07T04:46:16.127Z,8.90
2017-11-07T04:48:44.264Z,8.67
2017-11-07T04:51:11.681Z,8.80
2017-11-07T04:53:39.845Z,8.23
2017-11-07T04:56:07.287Z,9.10
2017-11-07T04:58:34.700Z,8.73
2017-11-07T05:01:02.857Z,8.80
2017-11-07T05:03:30.787Z,7.70
2017-11-07T05:05:58.232Z,9.27
2017-11-07T05:08:36.515Z,8.40
2017-11-07T05:11:05.805Z,8.03
2017-11-07T05:13:33.226Z,8.77
2017-11-07T05:16:00.645Z,8.30
2017-11-07T05:18:28.047Z,8.67
2017-11-07T05:20:55.506Z,7.63
2017-11-07T05:23:22.940Z,8.43
2017-11-07T05:25:50.377Z,7.37
2017-11-07T05:28:17.820Z,8.10
2017-11-07T05:30:45.229Z,7.27
2017-11-07T05:33:13.062Z,8.30
2017-11-07T05:35:40.519Z,8.57
2017-11-07T05:38:07.993Z,7.53
2017-11-07T05:40:35.419Z,7.37
2017-11-07T05:43:02.870Z,8.47
2017-11-07T05:45:30.266Z,7.10
2017-11-07T05:47:57.699Z,8.33
2017-11-07T05:50:25.133Z,8.40
2017-11-07T05:52:52.557Z,7.77
2017-11-07T05:55:19.968Z,8.50
2017-11-07T05:57:48.182Z,7.67
2017-11-07T06:00:15.635Z,8.43
2017-11-07T06:02:43.051Z,8.67
2017-11-07T06:05:10.503Z,8.47
2017-11-07T06:07:37.881Z,7.50
2017-11-07T06:10:05.309Z,8.70
2017-11-07T06:12:32.715Z,8.07
2017-11-07T06:15:00.147Z,7.93
2017-11-07T06:17:27.553Z,8.13
2017-11-07T06:19:54.964Z,8.47
2017-11-07T06:22:22.394Z,9.17
2017-11-07T06:24:49.823Z,7.97
2017-11-07T06:27:17.945Z,7.90
2017-11-07T06:29:45.376Z,7.50
2017-11-07T06:32:12.815Z,7.70
2017-11-07T06:34:40.227Z,8.50
2017-11-07T06:37:07.655Z,8.70
2017-11-07T06:39:35.103Z,8.20
2017-11-07T06:42:02.590Z,8.07
2017-11-07T06:44:30.028Z,7.07
2017-11-07T06:46:57.495Z,9.10
2017-11-07T06:49:24.923Z,7.30
2017-11-07T06:51:52.489Z,8.50
2017-11-07T06:54:20.160Z,8.27
2017-11-07T06:56:47.631Z,8.37
2017-11-07T06:59:15.090Z,8.10
2017-11-07T07:01:42.753Z,8.90
2017-11-07T07:04:10.233Z,10.43
2017-11-07T07:06:37.682Z,8.60
2017-11-07T07:09:05.105Z,8.50
2017-11-07T07:11:32.568Z,8.57
2017-11-07T07:14:00.009Z,8.70
2017-11-07T07:16:27.466Z,9.90
2017-11-07T07:18:54.918Z,9.30
2017-11-07T07:21:22.299Z,8.50
2017-11-07T07:23:50.657Z,9.33
2017-11-07T07:26:18.121Z,9.30
2017-11-07T07:28:46.059Z,9.27
2017-11-07T07:31:13.583Z,9.30
2017-11-07T07:33:40.992Z,8.43
2017-11-07T07:36:14.866Z,8.50
2017-11-07T07:38:43.627Z,8.90
2017-11-07T07:41:11.108Z,8.70
2017-11-07T07:43:38.569Z,9.57
2017-11-07T07:46:05.994Z,8.47
2017-11-07T07:48:50.020Z,9.80
2017-11-07T07:51:17.432Z,10.07
2017-11-07T07:53:55.951Z,9.40
2017-11-07T07:56:24.282Z,9.67
2017-11-07T07:58:51.747Z,9.60
2017-11-07T08:01:19.149Z,8.93
2017-11-07T08:03:46.608Z,9.93
2017-11-07T08:06:14.026Z,9.57
2017-11-07T08:08:41.440Z,8.70
2017-11-07T08:11:08.906Z,8.00
2017-11-07T08:13:36.379Z,8.77
2017-11-07T08:16:03.813Z,9.83
2017-11-07T08:18:31.352Z,9.97
2017-11-07T08:20:59.038Z,9.27
2017-11-07T08:23:26.494Z,10.13
2017-11-07T08:25:53.924Z,9.93
2017-11-07T08:28:22.350Z,9.50
2017-11-07T08:30:57.757Z,9.80
2017-11-07T08:33:25.216Z,10.33
2017-11-07T08:35:52.674Z,9.83
2017-11-07T08:38:20.076Z,8.93
2017-11-07T08:40:47.535Z,9.30
2017-11-07T08:43:28.956Z,10.13
2017-11-07T08:45:56.581Z,10.80
2017-11-07T08:48:27.344Z,10.03
2017-11-07T08:50:54.822Z,9.17
2017-11-07T08:53:31.089Z,9.50
2017-11-07T08:55:59.465Z,9.97
2017-11-07T08:58:26.891Z,9.80
2017-11-07T09:01:04.459Z,10.50
2017-11-07T09:03:31.873Z,10.23
2017-11-07T09:05:59.321Z,11.13
2017-11-07T09:08:27.312Z,9.80
2017-11-07T09:10:54.747Z,10.90
2017-11-07T09:13:22.258Z,9.60
2017-11-07T09:15:50.636Z,9.50
2017-11-07T09:18:20.137Z,10.10
2017-11-07T09:20:47.566Z,9.60
2017-11-07T09:23:15.734Z,9.37
2017-11-07T09:25:43.279Z,9.20
2017-11-07T09:28:10.741Z,8.80
2017-11-07T09:30:40.834Z,10.03
2017-11-07T09:33:09.020Z,9.57
2017-11-07T09:35:36.489Z,10.13
2017-11-07T09:38:11.735Z,10.20
2017-11-07T09:40:39.248Z,10.73
2017-11-07T09:45:47.946Z,9.97
2017-11-07T09:48:15.389Z,10.70
2017-11-07T09:50:42.839Z,10.00
2017-11-07T09:53:10.298Z,9.83
2017-11-07T09:55:37.825Z,9.77
2017-11-07T09:58:05.283Z,9.67
2017-11-07T10:00:32.768Z,10.10
2017-11-07T10:03:02.036Z,10.53
2017-11-07T10:05:29.452Z,9.30
2017-11-07T10:07:56.977Z,10.47
2017-11-07T10:10:24.382Z,9.37
2017-11-07T10:12:51.837Z,10.33
2017-11-07T10:15:23.251Z,10.07
2017-11-07T10:17:50.736Z,10.20
2017-11-07T10:20:18.189Z,10.20
2017-11-07T10:22:45.620Z,9.00
2017-11-07T10:25:13.093Z,8.90
2017-11-07T10:27:40.540Z,10.60
2017-11-07T10:30:08.027Z,9.93
2017-11-07T10:32:35.447Z,9.67
2017-11-07T10:35:16.134Z,9.70
2017-11-07T10:37:43.572Z,10.20
2017-11-07T10:40:11.047Z,9.37
2017-11-07T10:42:38.497Z,9.60
2017-11-07T10:45:05.923Z,10.87
2017-11-07T10:47:33.406Z,10.80
2017-11-07T10:50:00.819Z,11.83
2017-11-07T10:52:28.346Z,13.40
2017-11-07T10:54:55.919Z,10.33
2017-11-07T10:57:23.448Z,10.00
2017-11-07T10:59:50.904Z,10.57
2017-11-07T11:02:18.359Z,9.93
2017-11-07T11:04:45.833Z,10.00
2017-11-07T11:07:13.338Z,10.63
2017-11-07T11:09:40.780Z,10.83
2017-11-07T11:12:08.258Z,10.53
2017-11-07T11:14:35.732Z,10.43
2017-11-07T11:17:03.185Z,10.83
2017-11-07T11:19:30.642Z,11.60
2017-11-07T11:22:01.609Z,10.10
2017-11-07T11:24:29.057Z,10.30
2017-11-07T11:26:56.487Z,11.33
2017-11-07T11:29:23.942Z,9.97
2017-11-07T11:31:51.454Z,10.43
2017-11-07T11:34:19.189Z,11.60
2017-11-07T11:36:46.748Z,10.47
2017-11-07T11:39:14.309Z,13.67
2017-11-07T11:41:41.769Z,11.93
2017-11-07T11:44:09.198Z,11.80
2017-11-07T11:46:36.688Z,11.27
2017-11-07T11:49:04.144Z,12.17
2017-11-07T11:51:31.565Z,11.10
2017-11-07T11:53:59.549Z,11.30
2017-11-07T11:56:26.989Z,11.50
2017-11-07T11:58:54.443Z,10.90
2017-11-07T12:01:22.100Z,11.40
2017-11-07T12:03:49.564Z,10.60
2017-11-07T12:06:17.022Z,11.73
2017-11-07T12:08:45.401Z,10.80
2017-11-07T12:11:12.855Z,9.93
2017-11-07T12:13:40.310Z,11.30
2017-11-07T12:16:07.787Z,10.30
2017-11-07T12:18:35.297Z,10.47
2017-11-07T12:21:02.792Z,9.77
2017-11-07T12:23:30.243Z,11.80
2017-11-07T12:25:57.722Z,12.90
2017-11-07T12:28:25.182Z,10.67
2017-11-07T12:30:52.634Z,11.23
2017-11-07T12:33:20.142Z,11.80
2017-11-07T12:35:47.622Z,11.50
2017-11-07T12:38:15.103Z,34.23
2017-11-07T12:40:42.544Z,11.23
2017-11-07T12:43:10.005Z,10.43
2017-11-07T12:45:37.476Z,10.83
2017-11-07T12:48:04.945Z,13.30
2017-11-07T12:50:44.143Z,14.57
2017-11-07T12:53:12.947Z,10.47
2017-11-07T12:55:40.399Z,11.30
2017-11-07T12:58:08.408Z,12.27
2017-11-07T13:00:35.830Z,11.50
2017-11-07T13:03:03.321Z,11.50
2017-11-07T13:05:30.737Z,10.80
2017-11-07T13:07:58.187Z,11.00
2017-11-07T13:10:25.631Z,10.60
2017-11-07T13:12:53.124Z,13.17
2017-11-07T13:15:21.533Z,11.90
2017-11-07T13:17:49.004Z,10.53
2017-11-07T13:20:16.448Z,12.37
2017-11-07T13:22:43.894Z,11.87
2017-11-07T13:25:11.389Z,12.20
2017-11-07T13:27:39.039Z,13.73
2017-11-07T13:30:06.597Z,10.67
2017-11-07T13:32:34.013Z,11.10
2017-11-07T13:35:01.493Z,14.17
2017-11-07T13:37:28.963Z,15.70
2017-11-07T13:39:56.419Z,11.70
2017-11-07T13:42:23.931Z,11.80
2017-11-07T13:44:51.376Z,11.50
2017-11-07T13:47:18.845Z,11.83
2017-11-07T13:49:46.292Z,12.00
2017-11-07T13:52:13.782Z,11.60
2017-11-07T13:54:41.211Z,11.40
2017-11-07T13:57:08.655Z,10.90
2017-11-07T13:59:36.119Z,12.00
2017-11-07T14:02:03.574Z,11.93
2017-11-07T14:04:31.090Z,11.20
2017-11-07T14:06:58.523Z,11.60
2017-11-07T14:09:25.965Z,12.17
2017-11-07T14:11:53.441Z,13.20
2017-11-07T14:14:20.810Z,15.10
2017-11-07T14:16:49.127Z,11.60
2017-11-07T14:19:16.566Z,11.93
2017-11-07T14:21:44.101Z,11.67
2017-11-07T14:24:11.588Z,13.90
2017-11-07T14:26:39.028Z,12.70
2017-11-07T14:29:06.526Z,12.03
2017-11-07T14:31:33.979Z,10.90
2017-11-07T14:34:01.476Z,12.60
2017-11-07T14:36:28.995Z,12.13
2017-11-07T14:38:56.459Z,11.03
2017-11-07T14:41:23.876Z,12.10
2017-11-07T14:43:51.316Z,11.77
2017-11-07T14:46:18.798Z,13.43
2017-11-07T14:48:46.274Z,12.03
2017-11-07T14:51:14.457Z,11.60
2017-11-07T14:53:41.878Z,11.10
2017-11-07T14:56:09.475Z,12.90
2017-11-07T14:58:36.932Z,12.27
2017-11-07T15:01:04.355Z,12.40
2017-11-07T15:03:31.817Z,11.80
2017-11-07T15:05:59.291Z,12.77
2017-11-07T15:08:26.729Z,12.70
2017-11-07T15:10:54.160Z,12.30
2017-11-07T15:13:21.595Z,11.40
2017-11-07T15:15:49.029Z,13.00
2017-11-07T15:18:17.928Z,14.30
2017-11-07T15:20:45.393Z,12.40
2017-11-07T15:23:14.636Z,12.37
2017-11-07T15:25:42.137Z,13.40
2017-11-07T15:28:09.618Z,11.50
2017-11-07T15:30:37.053Z,12.50
2017-11-07T15:33:04.513Z,12.50
2017-11-07T15:35:31.942Z,12.80
2017-11-07T15:37:59.376Z,12.20
2017-11-07T15:40:26.866Z,14.30
2017-11-07T15:42:54.307Z,13.63
2017-11-07T15:45:21.782Z,11.53
2017-11-07T15:47:49.215Z,11.70
2017-11-07T15:50:16.656Z,11.53
2017-11-07T15:52:44.169Z,11.10
2017-11-07T15:55:11.613Z,11.47
2017-11-07T15:57:39.036Z,11.60
2017-11-07T16:00:06.567Z,11.20
2017-11-07T16:02:34.038Z,13.40
2017-11-07T16:05:01.514Z,12.60
2017-11-07T16:07:29.677Z,12.30
2017-11-07T16:09:57.452Z,11.73
2017-11-07T16:12:24.944Z,11.33
2017-11-07T16:14:52.463Z,11.90
2017-11-07T16:17:20.862Z,10.83
2017-11-07T16:19:48.325Z,10.70
2017-11-07T16:22:15.781Z,12.50
2017-11-07T16:24:43.280Z,13.13
2017-11-07T16:27:11.691Z,11.57
2017-11-07T16:29:39.221Z,10.97
2017-11-07T16:32:06.743Z,11.90
2017-11-07T16:34:34.183Z,12.80
2017-11-07T16:37:01.693Z,11.83
2017-11-07T16:39:29.209Z,12.00
2017-11-07T16:41:56.700Z,12.70
2017-11-07T16:44:24.128Z,12.00
2017-11-07T16:46:51.573Z,14.17
2017-11-07T16:49:19.074Z,13.13
2017-11-07T16:51:46.527Z,13.23
2017-11-07T16:54:13.979Z,11.50
2017-11-07T16:56:41.397Z,14.90
2017-11-07T16:59:10.123Z,16.33
2017-11-07T17:01:37.653Z,11.60
2017-11-07T17:04:05.133Z,12.23
2017-11-07T17:06:32.626Z,12.13
2017-11-07T17:09:00.142Z,11.77
2017-11-07T17:11:27.551Z,11.77
2017-11-07T17:13:55.024Z,11.97
2017-11-07T17:16:22.517Z,12.17
2017-11-07T17:18:49.922Z,11.57
2017-11-07T17:21:18.531Z,12.10
2017-11-07T17:23:45.949Z,12.10
2017-11-07T17:26:13.389Z,12.10
2017-11-07T17:28:40.796Z,12.07
2017-11-07T17:31:08.262Z,11.53
2017-11-07T17:33:35.705Z,11.60
2017-11-07T17:36:03.110Z,12.93
2017-11-07T17:38:30.615Z,12.33
2017-11-07T17:40:58.023Z,12.03
2017-11-07T17:43:25.451Z,13.27
2017-11-07T17:45:52.862Z,12.60
2017-11-07T17:48:20.276Z,12.50
2017-11-07T17:50:47.720Z,13.40
2017-11-07T17:53:15.167Z,13.47
2017-11-07T17:55:42.636Z,13.30
2017-11-07T17:58:10.063Z,12.57
2017-11-07T18:00:37.573Z,12.27
2017-11-07T18:03:05.021Z,14.93
2017-11-07T18:05:32.515Z,14.40
2017-11-07T18:08:00.048Z,12.07
2017-11-07T18:10:27.504Z,13.30
2017-11-07T18:12:55.144Z,12.40
2017-11-07T18:15:23.356Z,13.80
2017-11-07T18:17:50.797Z,12.70
2017-11-07T18:20:18.246Z,12.60
2017-11-07T18:22:45.697Z,13.00
2017-11-07T18:25:13.195Z,12.10
2017-11-07T18:27:40.628Z,12.67
2017-11-07T18:30:08.117Z,12.40
2017-11-07T18:32:35.582Z,12.37
2017-11-07T18:35:03.039Z,13.23
2017-11-07T18:37:30.434Z,12.90
2017-11-07T18:39:58.007Z,13.90
2017-11-07T18:42:26.285Z,13.30
2017-11-07T18:44:53.737Z,12.37
2017-11-07T18:47:21.229Z,12.30
2017-11-07T18:49:48.717Z,12.57
2017-11-07T18:52:16.149Z,12.30
2017-11-07T18:54:43.644Z,12.50
2017-11-07T18:57:11.096Z,13.50
2017-11-07T18:59:38.579Z,13.43
2017-11-07T19:02:06.035Z,14.00
2017-11-07T19:04:33.465Z,12.50
2017-11-07T19:07:00.927Z,14.50
2017-11-07T19:09:28.377Z,13.10
2017-11-07T19:11:55.785Z,15.00
2017-11-07T19:14:23.242Z,14.03
2017-11-07T19:16:50.668Z,13.33
2017-11-07T19:19:18.136Z,12.73
2017-11-07T19:21:45.601Z,11.93
2017-11-07T19:24:13.048Z,13.30
2017-11-07T19:26:40.445Z,13.20
2017-11-07T19:29:07.883Z,13.20
2017-11-07T19:31:36.124Z,13.00
2017-11-07T19:34:03.567Z,12.90
2017-11-07T19:36:30.993Z,13.60
2017-11-07T19:38:58.424Z,14.40
2017-11-07T19:41:25.852Z,13.90
2017-11-07T19:43:53.294Z,15.70
2017-11-07T19:46:20.721Z,13.37
2017-11-07T19:48:48.146Z,15.53
2017-11-07T19:51:15.572Z,15.30
2017-11-07T19:53:42.966Z,14.87
2017-11-07T19:56:10.409Z,13.40
2017-11-07T19:58:37.829Z,14.43
2017-11-07T20:01:05.255Z,13.50
2017-11-07T20:03:32.656Z,14.37
2017-11-07T20:06:00.085Z,14.47
2017-11-07T20:08:27.531Z,14.00
2017-11-07T20:10:54.980Z,13.83
2017-11-07T20:13:22.417Z,14.07
2017-11-07T20:15:49.828Z,14.47
2017-11-07T20:18:17.273Z,14.37
2017-11-07T20:20:44.676Z,15.30
2017-11-07T20:23:12.198Z,16.27
2017-11-07T20:25:40.585Z,15.40
2017-11-07T20:28:08.054Z,15.40
2017-11-07T20:30:35.458Z,14.67
2017-11-07T20:33:03.708Z,15.97
2017-11-07T20:35:31.181Z,15.90
2017-11-07T20:37:59.725Z,15.50
2017-11-07T20:40:27.428Z,16.90
2017-11-07T20:42:54.828Z,16.30
2017-11-07T20:45:23.209Z,16.20
2017-11-07T20:47:50.615Z,15.67
2017-11-07T20:50:18.051Z,15.70
2017-11-07T20:52:45.514Z,15.47
2017-11-07T20:55:12.950Z,16.03
2017-11-07T20:57:40.385Z,15.03
2017-11-07T21:00:08.723Z,15.23
2017-11-07T21:02:36.156Z,15.07
2017-11-07T21:05:03.696Z,14.60
2017-11-07T21:07:31.143Z,15.77
2017-11-07T21:09:58.558Z,14.70
2017-11-07T21:12:25.976Z,15.50
2017-11-07T21:14:53.395Z,15.53
2017-11-07T21:17:20.878Z,14.40
2017-11-07T21:19:48.306Z,14.70
2017-11-07T21:22:15.872Z,15.17
2017-11-07T21:24:43.300Z,15.40
2017-11-07T21:27:10.788Z,14.23
2017-11-07T21:29:38.240Z,14.13
2017-11-07T21:32:05.688Z,14.33
2017-11-07T21:34:33.153Z,13.90
2017-11-07T21:37:00.618Z,14.90
2017-11-07T21:39:28.070Z,13.93
2017-11-07T21:41:55.494Z,15.17
2017-11-07T21:44:22.934Z,15.50
2017-11-07T21:46:50.336Z,16.40
2017-11-07T21:49:17.808Z,15.17
2017-11-07T21:51:45.220Z,16.33
2017-11-07T21:54:12.696Z,15.93
2017-11-07T21:56:40.092Z,15.03
2017-11-07T21:59:07.538Z,14.10
2017-11-07T22:01:34.949Z,14.10
2017-11-07T22:04:02.395Z,13.33
2017-11-07T22:06:29.803Z,14.70
2017-11-07T22:08:57.268Z,14.87
2017-11-07T22:11:24.702Z,13.60
2017-11-07T22:13:52.099Z,13.67
2017-11-07T22:16:19.555Z,14.07
2017-11-07T22:18:46.967Z,13.47
2017-11-07T22:21:14.421Z,14.53
2017-11-07T22:23:41.838Z,13.07
2017-11-07T22:26:09.319Z,12.97
2017-11-07T22:28:36.719Z,13.30
2017-11-07T22:31:04.182Z,13.53
2017-11-07T22:33:31.593Z,13.93
2017-11-07T22:35:59.036Z,14.60
2017-11-07T22:38:26.487Z,13.87
2017-11-07T22:40:53.883Z,14.53
2017-11-07T22:43:21.325Z,14.53
2017-11-07T22:45:48.740Z,14.37
2017-11-07T22:48:17.070Z,14.80
2017-11-07T22:50:44.477Z,14.60
2017-11-07T22:53:11.895Z,15.10
2017-11-07T22:55:39.349Z,14.33
2017-11-07T22:58:06.807Z,13.67
2017-11-07T23:00:34.215Z,14.43
2017-11-07T23:03:01.702Z,14.63
2017-11-07T23:05:29.111Z,14.50
2017-11-07T23:07:56.522Z,15.37
2017-11-07T23:10:23.969Z,14.80
2017-11-07T23:12:51.362Z,15.30
2017-11-07T23:15:18.812Z,14.30
2017-11-07T23:17:46.275Z,15.70
2017-11-07T23:20:13.709Z,15.67
2017-11-07T23:22:41.131Z,15.50
2017-11-07T23:25:08.624Z,14.80
2017-11-07T23:27:36.045Z,14.93
2017-11-07T23:30:03.521Z,14.23
2017-11-07T23:32:30.913Z,14.17
2017-11-07T23:34:58.354Z,15.27
2017-11-07T23:37:25.772Z,14.80
2017-11-07T23:39:53.164Z,14.97
2017-11-07T23:42:20.707Z,16.90
2017-11-07T23:44:48.104Z,16.10
2017-11-07T23:47:15.544Z,15.57
2017-11-07T23:49:42.964Z,15.33
2017-11-07T23:52:10.400Z,13.97
2017-11-07T23:54:37.798Z,14.80
2017-11-07T23:57:05.235Z,14.90
2017-11-07T23:59:32.681Z,13.23
